createdAt,value
2022-10-13T00:00:51.914Z,10.73
2022-10-13T00:03:20.257Z,12.20
2022-10-13T00:05:49.878Z,12.50
2022-10-13T00:08:19.760Z,14.33
2022-10-13T00:10:49.698Z,13.03
2022-10-13T00:13:19.782Z,11.10
2022-10-13T00:15:48.846Z,9.23
2022-10-13T00:18:17.430Z,12.47
2022-10-13T00:20:47.449Z,9.27
2022-10-13T00:23:16.156Z,10.90
2022-10-13T00:25:45.357Z,9.97
2022-10-13T00:28:14.537Z,11.30
2022-10-13T00:30:44.095Z,9.40
2022-10-13T00:33:13.423Z,12.53
2022-10-13T00:35:42.299Z,8.30
2022-10-13T00:38:10.340Z,8.20
2022-10-13T00:40:45.172Z,7.73
2022-10-13T00:43:18.576Z,8.73
2022-10-13T00:45:50.638Z,8.30
2022-10-13T00:48:20.208Z,10.40
2022-10-13T00:50:48.492Z,10.20
2022-10-13T00:53:18.080Z,10.93
2022-10-13T00:55:48.433Z,10.10
2022-10-13T00:58:19.499Z,8.60
2022-10-13T01:00:51.032Z,10.40
2022-10-13T01:03:20.385Z,9.87
2022-10-13T01:05:49.685Z,11.63
2022-10-13T01:08:19.021Z,10.37
2022-10-13T01:10:57.964Z,12.40
2022-10-13T01:13:36.549Z,11.33
2022-10-13T01:16:13.497Z,10.03
2022-10-13T01:18:51.941Z,12.77
2022-10-13T01:21:30.136Z,14.97
2022-10-13T01:24:40.262Z,11.47
2022-10-13T01:27:47.370Z,12.03
2022-10-13T01:30:18.972Z,15.07
2022-10-13T01:33:06.827Z,11.50
2022-10-13T01:35:56.797Z,15.90
2022-10-13T01:38:34.396Z,15.90
2022-10-13T01:41:11.098Z,13.67
2022-10-13T01:43:43.915Z,16.90
2022-10-13T01:46:16.654Z,15.80
2022-10-13T01:48:46.238Z,13.80
2022-10-13T01:51:18.887Z,12.53
2022-10-13T01:53:48.579Z,13.13
2022-10-13T01:56:16.822Z,18.03
2022-10-13T01:58:45.613Z,18.20
2022-10-13T02:01:33.706Z,16.73
2022-10-13T02:04:11.515Z,25.27
2022-10-13T02:06:44.949Z,23.70
2022-10-13T02:09:20.907Z,20.43
2022-10-13T02:11:53.421Z,17.83
2022-10-13T02:14:26.314Z,18.03
2022-10-13T02:16:56.984Z,17.60
2022-10-13T02:19:25.361Z,20.07
2022-10-13T02:21:54.389Z,19.50
2022-10-13T02:24:22.555Z,17.63
2022-10-13T02:26:52.270Z,16.73
2022-10-13T02:29:20.363Z,24.10
2022-10-13T02:31:48.252Z,21.90
2022-10-13T02:34:17.902Z,20.43
2022-10-13T02:36:45.774Z,18.00
2022-10-13T02:39:13.820Z,17.97
2022-10-13T02:41:41.723Z,20.30
2022-10-13T02:44:09.690Z,26.87
2022-10-13T02:46:37.653Z,19.87
2022-10-13T02:49:05.574Z,18.17
2022-10-13T02:51:39.080Z,25.87
2022-10-13T02:54:08.173Z,25.67
2022-10-13T02:56:36.049Z,22.93
2022-10-13T02:59:03.983Z,18.60
2022-10-13T03:01:31.964Z,19.60
2022-10-13T03:03:59.861Z,17.67
2022-10-13T03:06:27.817Z,18.40
2022-10-13T03:08:57.035Z,20.57
2022-10-13T03:11:25.047Z,22.00
2022-10-13T03:13:53.054Z,24.63
2022-10-13T03:16:21.074Z,22.60
2022-10-13T03:18:48.995Z,21.87
2022-10-13T03:21:16.858Z,17.87
2022-10-13T03:23:44.753Z,20.70
2022-10-13T03:26:15.530Z,19.30
2022-10-13T03:28:43.598Z,23.70
2022-10-13T03:31:13.276Z,19.90
2022-10-13T03:33:42.003Z,19.03
2022-10-13T03:36:11.788Z,17.50
2022-10-13T03:38:40.031Z,17.60
2022-10-13T03:41:09.771Z,18.50
2022-10-13T03:43:39.438Z,21.33
2022-10-13T03:46:08.931Z,17.87
2022-10-13T03:48:37.753Z,18.07
2022-10-13T03:51:07.381Z,16.87
2022-10-13T03:53:36.010Z,17.43
2022-10-13T03:56:05.342Z,19.03
2022-10-13T03:58:33.481Z,18.27
2022-10-13T04:01:05.473Z,24.03
2022-10-13T04:03:33.897Z,22.00
2022-10-13T04:06:02.755Z,23.40
2022-10-13T04:08:31.267Z,21.50
2022-10-13T04:11:03.055Z,19.03
2022-10-13T04:13:31.100Z,22.20
2022-10-13T04:16:04.596Z,21.50
2022-10-13T04:18:32.828Z,23.37
2022-10-13T04:21:01.065Z,22.50
2022-10-13T04:23:36.454Z,21.93
2022-10-13T04:26:07.967Z,18.37
2022-10-13T04:28:37.367Z,20.00
2022-10-13T04:31:06.774Z,24.10
2022-10-13T04:33:34.760Z,24.43
2022-10-13T04:36:05.361Z,21.43
2022-10-13T04:38:33.410Z,21.27
2022-10-13T04:41:04.122Z,25.40
2022-10-13T04:43:32.324Z,17.23
2022-10-13T04:46:03.896Z,20.30
2022-10-13T04:48:33.423Z,20.13
2022-10-13T04:51:02.443Z,17.47
2022-10-13T04:53:30.628Z,19.57
2022-10-13T04:56:01.652Z,22.63
2022-10-13T04:58:30.033Z,17.70
2022-10-13T05:00:58.195Z,17.50
2022-10-13T05:03:26.227Z,19.87
2022-10-13T05:05:55.539Z,27.37
2022-10-13T05:08:23.473Z,31.97
2022-10-13T05:10:57.063Z,27.50
2022-10-13T05:13:26.178Z,32.73
2022-10-13T05:15:54.547Z,29.50
2022-10-13T05:18:22.656Z,30.93
2022-10-13T05:20:50.597Z,30.17
2022-10-13T05:23:20.506Z,19.80
2022-10-13T05:25:48.458Z,32.73
2022-10-13T05:28:16.436Z,36.33
2022-10-13T05:30:44.383Z,30.87
2022-10-13T05:33:12.244Z,25.30
2022-10-13T05:35:40.122Z,30.33
2022-10-13T05:38:07.988Z,23.40
2022-10-13T05:40:37.302Z,22.10
2022-10-13T05:43:05.444Z,29.20
2022-10-13T05:45:34.415Z,24.23
2022-10-13T05:48:02.284Z,32.13
2022-10-13T05:50:30.305Z,33.63
2022-10-13T05:52:58.504Z,25.80
2022-10-13T05:55:26.696Z,24.63
2022-10-13T05:57:56.150Z,33.10
2022-10-13T06:00:24.664Z,32.80
2022-10-13T06:02:58.227Z,29.47
2022-10-13T06:05:28.404Z,32.87
2022-10-13T06:07:56.495Z,27.57
2022-10-13T06:10:24.789Z,25.90
2022-10-13T06:12:52.731Z,21.57
2022-10-13T06:15:27.112Z,22.20
2022-10-13T06:17:55.980Z,25.67
2022-10-13T06:20:24.008Z,24.70
2022-10-13T06:22:51.919Z,31.40
2022-10-13T06:25:19.800Z,23.83
2022-10-13T06:27:47.735Z,17.60
2022-10-13T06:30:15.749Z,26.40
2022-10-13T06:32:45.018Z,22.93
2022-10-13T06:35:12.904Z,20.97
2022-10-13T06:37:40.798Z,17.73
2022-10-13T06:40:09.816Z,23.87
2022-10-13T06:42:37.793Z,28.00
2022-10-13T06:45:06.307Z,23.23
2022-10-13T06:47:34.377Z,20.97
2022-10-13T06:50:03.677Z,23.00
2022-10-13T06:52:31.590Z,25.57
2022-10-13T06:54:59.460Z,28.40
2022-10-13T06:57:27.446Z,25.97
2022-10-13T06:59:55.382Z,28.43
2022-10-13T07:02:23.443Z,22.00
2022-10-13T07:04:51.366Z,29.00
2022-10-13T07:07:20.713Z,24.43
2022-10-13T07:09:49.366Z,32.60
2022-10-13T07:12:17.873Z,26.77
2022-10-13T07:14:46.049Z,38.90
2022-10-13T07:17:13.969Z,25.00
2022-10-13T07:19:41.929Z,32.90
2022-10-13T07:22:09.805Z,33.10
2022-10-13T07:24:39.029Z,24.50
2022-10-13T07:27:08.004Z,25.20
2022-10-13T07:29:36.167Z,28.87
2022-10-13T07:32:04.294Z,20.20
2022-10-13T07:34:32.205Z,21.40
2022-10-13T07:37:00.173Z,29.20
2022-10-13T07:39:28.082Z,31.90
2022-10-13T07:41:57.376Z,27.00
2022-10-13T07:44:25.353Z,29.90
2022-10-13T07:46:53.269Z,28.37
2022-10-13T07:49:21.165Z,24.60
2022-10-13T07:51:49.083Z,22.60
2022-10-13T07:54:21.460Z,23.03
2022-10-13T07:56:52.985Z,22.60
2022-10-13T07:59:22.620Z,17.63
2022-10-13T08:01:50.632Z,24.70
2022-10-13T08:04:18.584Z,26.87
2022-10-13T08:06:46.575Z,24.80
2022-10-13T08:09:14.460Z,29.63
2022-10-13T08:11:42.337Z,30.03
2022-10-13T08:14:13.091Z,28.53
2022-10-13T08:16:48.569Z,30.20
2022-10-13T08:19:22.009Z,22.73
2022-10-13T08:21:59.871Z,28.03
2022-10-13T08:24:28.522Z,20.70
2022-10-13T08:26:57.214Z,20.83
2022-10-13T08:29:25.235Z,27.40
2022-10-13T08:31:56.275Z,28.13
2022-10-13T08:34:24.950Z,25.10
2022-10-13T08:36:56.145Z,28.10
2022-10-13T08:39:24.884Z,32.30
2022-10-13T08:41:54.217Z,23.23
2022-10-13T08:47:25.674Z,19.60
2022-10-13T08:49:59.152Z,19.83
2022-10-13T08:52:30.967Z,24.70
2022-10-13T08:54:59.388Z,17.70
2022-10-13T08:57:27.468Z,18.90
2022-10-13T08:59:55.879Z,24.10
2022-10-13T09:02:30.336Z,16.77
2022-10-13T09:05:00.869Z,19.10
2022-10-13T09:07:32.355Z,21.13
2022-10-13T09:10:00.228Z,19.20
2022-10-13T09:12:28.556Z,22.50
2022-10-13T09:15:03.308Z,20.37
2022-10-13T09:17:34.074Z,25.23
2022-10-13T09:20:05.049Z,18.77
2022-10-13T09:22:35.016Z,24.03
2022-10-13T09:25:10.492Z,22.00
2022-10-13T09:27:46.116Z,23.23
2022-10-13T09:30:33.775Z,21.53
2022-10-13T09:33:20.045Z,26.03
2022-10-13T09:35:50.095Z,26.53
2022-10-13T09:38:20.913Z,18.60
2022-10-13T09:41:00.393Z,30.77
2022-10-13T09:43:32.019Z,25.50
2022-10-13T09:46:01.840Z,23.00
2022-10-13T09:48:33.858Z,23.10
2022-10-13T09:51:02.760Z,24.13
2022-10-13T09:53:33.359Z,28.50
2022-10-13T09:56:19.071Z,26.50
2022-10-13T09:58:53.125Z,25.00
2022-10-13T10:01:25.654Z,18.67
2022-10-13T10:03:56.037Z,18.60
2022-10-13T10:06:27.698Z,18.53
2022-10-13T10:09:04.162Z,20.13
2022-10-13T10:11:36.189Z,16.53
2022-10-13T10:14:15.535Z,25.23
2022-10-13T10:16:47.736Z,23.73
2022-10-13T10:19:21.492Z,26.80
2022-10-13T10:21:55.455Z,26.40
2022-10-13T10:24:31.070Z,30.60
2022-10-13T10:27:02.816Z,27.03
2022-10-13T10:29:41.806Z,26.13
2022-10-13T10:32:21.834Z,25.50
2022-10-13T10:34:55.712Z,29.80
2022-10-13T10:37:41.042Z,28.93
2022-10-13T10:40:22.269Z,28.03
2022-10-13T10:43:21.496Z,32.20
2022-10-13T10:45:49.816Z,30.57
2022-10-13T10:48:23.253Z,24.43
2022-10-13T10:50:54.036Z,23.40
2022-10-13T10:53:30.217Z,28.97
2022-10-13T10:56:04.618Z,27.20
2022-10-13T10:58:40.725Z,32.17
2022-10-13T11:01:19.435Z,30.87
2022-10-13T11:03:55.960Z,37.87
2022-10-13T11:06:33.874Z,31.60
2022-10-13T11:09:02.925Z,31.97
2022-10-13T11:11:39.428Z,24.90
2022-10-13T11:14:37.926Z,32.10
2022-10-13T11:17:20.792Z,25.17
2022-10-13T11:19:49.999Z,31.03
2022-10-13T11:22:21.399Z,25.50
2022-10-13T11:25:17.940Z,26.73
2022-10-13T11:27:46.145Z,27.37
2022-10-13T11:30:47.458Z,21.40
2022-10-13T11:33:57.377Z,24.20
2022-10-13T11:36:40.367Z,25.40
2022-10-13T11:39:53.051Z,22.87
2022-10-13T11:42:52.338Z,19.57
2022-10-13T11:45:46.519Z,22.80
2022-10-13T11:48:47.815Z,28.53
2022-10-13T11:51:31.865Z,25.87
2022-10-13T11:54:11.789Z,25.03
2022-10-13T11:56:49.010Z,29.87
2022-10-13T11:59:22.602Z,27.10
2022-10-13T12:01:55.205Z,29.50
2022-10-13T12:04:25.213Z,20.70
2022-10-13T12:07:00.352Z,22.90
2022-10-13T12:09:28.638Z,24.67
2022-10-13T12:12:03.854Z,27.07
2022-10-13T12:14:39.921Z,27.03
2022-10-13T12:17:23.596Z,19.23
2022-10-13T12:19:54.596Z,21.03
2022-10-13T12:22:23.010Z,16.83
2022-10-13T12:25:01.348Z,18.00
2022-10-13T12:27:33.553Z,20.77
2022-10-13T12:30:02.319Z,15.43
2022-10-13T12:32:32.131Z,17.30
2022-10-13T12:35:16.482Z,22.23
2022-10-13T12:37:44.579Z,17.93
2022-10-13T12:40:15.615Z,22.90
2022-10-13T12:42:45.854Z,18.03
2022-10-13T12:45:17.109Z,16.50
2022-10-13T12:47:50.918Z,22.80
2022-10-13T12:50:36.777Z,23.67
2022-10-13T12:53:15.514Z,17.93
2022-10-13T12:55:58.611Z,21.30
2022-10-13T12:58:30.238Z,16.00
2022-10-13T13:01:10.267Z,17.60
2022-10-13T13:03:39.892Z,15.43
2022-10-13T13:06:22.322Z,21.47
2022-10-13T13:09:22.692Z,16.33
2022-10-13T13:12:03.957Z,15.90
2022-10-13T13:14:40.845Z,13.97
2022-10-13T13:17:13.526Z,20.80
2022-10-13T13:19:43.136Z,22.60
2022-10-13T13:22:11.659Z,17.77
2022-10-13T13:24:40.579Z,21.93
2022-10-13T13:27:24.169Z,14.67
2022-10-13T13:29:54.473Z,16.87
2022-10-13T13:32:24.624Z,17.20
2022-10-13T13:34:52.524Z,24.50
2022-10-13T13:37:31.571Z,26.90
2022-10-13T13:40:00.269Z,25.63
2022-10-13T13:42:30.900Z,20.87
2022-10-13T13:45:00.177Z,23.17
2022-10-13T13:47:29.461Z,23.07
2022-10-13T13:49:58.401Z,19.13
2022-10-13T13:52:26.585Z,23.97
2022-10-13T13:54:56.102Z,19.70
2022-10-13T13:57:24.089Z,19.47
2022-10-13T13:59:52.398Z,23.17
2022-10-13T14:02:22.853Z,24.80
2022-10-13T14:04:50.796Z,19.50
2022-10-13T14:07:20.236Z,23.33
2022-10-13T14:09:53.784Z,18.33
2022-10-13T14:12:24.050Z,18.10
2022-10-13T14:14:53.142Z,19.80
2022-10-13T14:17:22.432Z,18.00
2022-10-13T14:19:50.405Z,18.20
2022-10-13T14:22:18.570Z,15.30
2022-10-13T14:24:46.445Z,17.30
2022-10-13T14:27:14.357Z,16.83
2022-10-13T14:29:42.285Z,24.03
2022-10-13T14:32:10.261Z,23.17
2022-10-13T14:34:39.548Z,16.50
2022-10-13T14:37:07.504Z,15.67
2022-10-13T14:39:35.369Z,15.50
2022-10-13T14:42:03.240Z,18.77
2022-10-13T14:44:31.109Z,13.53
2022-10-13T14:46:58.982Z,18.00
2022-10-13T14:49:26.967Z,15.70
2022-10-13T14:51:56.298Z,15.47
2022-10-13T14:54:24.615Z,12.90
2022-10-13T14:56:52.538Z,13.03
2022-10-13T14:59:20.658Z,15.13
2022-10-13T15:01:50.120Z,15.20
2022-10-13T15:04:17.982Z,20.23
2022-10-13T15:06:45.879Z,27.47
2022-10-13T15:09:15.153Z,26.43
2022-10-13T15:11:43.134Z,27.77
2022-10-13T15:14:11.004Z,33.70
2022-10-13T15:16:38.897Z,42.47
2022-10-13T15:19:07.068Z,38.70
2022-10-13T15:21:35.390Z,37.33
2022-10-13T15:24:03.472Z,49.73
2022-10-13T15:26:33.648Z,33.80
2022-10-13T15:29:01.566Z,32.13
2022-10-13T15:31:30.925Z,29.67
2022-10-13T15:33:58.846Z,27.13
2022-10-13T15:36:26.939Z,24.60
2022-10-13T15:38:54.953Z,21.30
2022-10-13T15:41:24.389Z,17.33
2022-10-13T15:43:53.727Z,24.03
2022-10-13T15:46:26.212Z,19.93
2022-10-13T15:48:55.382Z,23.50
2022-10-13T15:51:26.859Z,22.33
2022-10-13T15:53:55.175Z,16.90
2022-10-13T15:56:23.095Z,15.63
2022-10-13T15:58:51.088Z,16.80
2022-10-13T16:01:20.428Z,17.27
2022-10-13T16:03:48.364Z,19.20
2022-10-13T16:06:16.355Z,20.53
2022-10-13T16:08:44.744Z,25.97
2022-10-13T16:11:14.769Z,33.70
2022-10-13T16:13:45.867Z,29.77
2022-10-13T16:16:14.014Z,29.07
2022-10-13T16:18:43.810Z,25.60
2022-10-13T16:21:18.307Z,28.03
2022-10-13T16:23:46.997Z,29.60
2022-10-13T16:26:17.305Z,27.07
2022-10-13T16:28:45.705Z,27.40
2022-10-13T16:31:15.510Z,32.57
2022-10-13T16:33:46.512Z,30.47
2022-10-13T16:36:16.201Z,23.70
2022-10-13T16:38:44.819Z,23.33
2022-10-13T16:41:15.071Z,20.83
2022-10-13T16:43:43.170Z,25.40
2022-10-13T16:46:13.953Z,19.90
2022-10-13T16:48:42.834Z,26.57
2022-10-13T16:51:15.695Z,23.30
2022-10-13T16:53:43.816Z,24.00
2022-10-13T16:56:11.944Z,23.63
2022-10-13T16:58:44.855Z,19.87
2022-10-13T17:01:13.601Z,18.47
2022-10-13T17:03:45.259Z,19.20
2022-10-13T17:06:15.697Z,16.60
2022-10-13T17:08:44.457Z,19.33
2022-10-13T17:11:17.640Z,16.07
2022-10-13T17:13:45.773Z,17.17
2022-10-13T17:16:13.737Z,19.70
2022-10-13T17:18:41.685Z,18.33
2022-10-13T17:21:11.111Z,16.50
2022-10-13T17:23:43.549Z,18.50
2022-10-13T17:26:16.416Z,19.60
2022-10-13T17:28:44.675Z,17.23
2022-10-13T17:31:16.296Z,17.40
2022-10-13T17:33:45.326Z,17.43
2022-10-13T17:36:15.233Z,18.10
2022-10-13T17:38:45.101Z,14.70
2022-10-13T17:41:13.251Z,24.67
2022-10-13T17:43:41.844Z,9.93
2022-10-13T17:46:34.945Z,16.27
2022-10-13T17:49:01.203Z,17.83
2022-10-13T17:51:29.237Z,18.83
2022-10-13T17:54:00.402Z,18.30
2022-10-13T17:56:28.868Z,19.30
2022-10-13T17:58:57.337Z,16.80
2022-10-13T18:01:27.022Z,15.97
2022-10-13T18:03:56.628Z,18.00
2022-10-13T18:06:25.168Z,19.67
2022-10-13T18:08:53.392Z,19.80
2022-10-13T18:11:24.482Z,17.70
2022-10-13T18:13:53.119Z,18.93
2022-10-13T18:16:22.831Z,22.07
2022-10-13T18:18:51.833Z,20.80
2022-10-13T18:21:22.500Z,21.23
2022-10-13T18:23:50.597Z,17.77
2022-10-13T18:26:20.064Z,16.90
2022-10-13T18:28:50.431Z,14.73
2022-10-13T18:31:20.262Z,16.17
2022-10-13T18:33:48.989Z,14.33
2022-10-13T18:36:19.979Z,15.67
2022-10-13T18:38:48.328Z,12.60
2022-10-13T18:41:17.302Z,17.57
2022-10-13T18:43:45.226Z,16.50
2022-10-13T18:46:14.782Z,12.23
2022-10-13T18:48:42.898Z,14.60
2022-10-13T18:51:12.566Z,13.63
2022-10-13T18:53:41.947Z,14.67
2022-10-13T18:56:12.457Z,14.90
2022-10-13T18:58:40.620Z,12.03
2022-10-13T19:01:10.621Z,14.10
2022-10-13T19:03:41.823Z,13.40
2022-10-13T19:06:11.812Z,14.10
2022-10-13T19:08:39.897Z,14.10
2022-10-13T19:11:14.512Z,14.27
2022-10-13T19:13:44.105Z,11.50
2022-10-13T19:16:13.246Z,11.77
2022-10-13T19:18:42.806Z,12.50
2022-10-13T19:21:11.648Z,15.40
2022-10-13T19:23:39.963Z,13.20
2022-10-13T19:26:12.564Z,13.53
2022-10-13T19:28:43.430Z,17.03
2022-10-13T19:31:12.538Z,11.90
2022-10-13T19:33:44.713Z,16.83
2022-10-13T19:36:20.912Z,10.60
2022-10-13T19:38:48.819Z,15.93
2022-10-13T19:41:16.731Z,12.40
2022-10-13T19:43:44.647Z,14.00
2022-10-13T19:46:12.671Z,10.67
2022-10-13T19:48:41.949Z,13.20
2022-10-13T19:51:11.227Z,14.60
2022-10-13T19:53:39.720Z,14.00
2022-10-13T19:56:08.514Z,12.60
2022-10-13T19:58:36.435Z,11.07
2022-10-13T20:01:06.728Z,12.27
2022-10-13T20:03:34.866Z,14.03
2022-10-13T20:06:06.808Z,18.17
2022-10-13T20:08:34.715Z,12.30
2022-10-13T20:11:07.522Z,22.40
2022-10-13T20:13:35.456Z,19.43
2022-10-13T20:16:07.111Z,20.13
2022-10-13T20:18:35.788Z,15.00
2022-10-13T20:21:05.904Z,17.20
2022-10-13T20:23:34.526Z,17.50
2022-10-13T20:26:07.592Z,14.50
2022-10-13T20:28:40.495Z,12.40
2022-10-13T20:31:11.495Z,11.67
2022-10-13T20:33:40.047Z,11.60
2022-10-13T20:36:13.003Z,13.33
2022-10-13T20:38:40.949Z,16.53
2022-10-13T20:41:10.395Z,14.87
2022-10-13T20:43:38.261Z,16.83
2022-10-13T20:46:07.627Z,16.67
2022-10-13T20:49:05.233Z,14.53
2022-10-13T20:51:26.915Z,13.77
2022-10-13T20:53:54.811Z,12.50
2022-10-13T20:56:24.616Z,12.50
2022-10-13T20:58:53.233Z,15.03
2022-10-13T21:01:23.460Z,14.03
2022-10-13T21:03:54.448Z,14.03
2022-10-13T21:06:23.724Z,11.50
2022-10-13T21:08:53.674Z,19.67
2022-10-13T21:11:23.119Z,21.80
2022-10-13T21:13:52.285Z,21.20
2022-10-13T21:16:22.139Z,19.10
2022-10-13T21:18:52.584Z,17.40
2022-10-13T21:21:22.258Z,14.40
2022-10-13T21:23:52.205Z,16.73
2022-10-13T21:26:22.145Z,14.03
2022-10-13T21:28:51.508Z,15.87
2022-10-13T21:31:20.897Z,13.13
2022-10-13T21:33:49.687Z,18.00
2022-10-13T21:36:20.017Z,15.60
2022-10-13T21:38:50.912Z,20.43
2022-10-13T21:41:20.391Z,19.80
2022-10-13T21:43:48.487Z,15.97
2022-10-13T21:46:19.409Z,19.60
2022-10-13T21:48:48.427Z,13.37
2022-10-13T21:51:18.349Z,19.23
2022-10-13T21:53:50.019Z,13.87
2022-10-13T21:56:18.287Z,18.20
2022-10-13T21:58:49.105Z,15.60
2022-10-13T22:01:18.937Z,14.80
2022-10-13T22:03:48.000Z,13.40
2022-10-13T22:06:19.379Z,14.67
2022-10-13T22:08:49.479Z,18.60
2022-10-13T22:11:18.401Z,14.60
2022-10-13T22:13:47.942Z,22.43
2022-10-13T22:16:18.313Z,17.37
2022-10-13T22:18:46.408Z,16.20
2022-10-13T22:21:16.248Z,18.10
2022-10-13T22:23:44.814Z,20.47
2022-10-13T22:26:13.416Z,10.70
2022-10-13T22:28:41.551Z,14.47
2022-10-13T22:31:14.026Z,11.60
2022-10-13T22:33:43.912Z,10.77
2022-10-13T22:36:14.963Z,12.20
2022-10-13T22:38:42.978Z,12.53
2022-10-13T22:41:10.947Z,15.37
2022-10-13T22:43:38.890Z,15.63
2022-10-13T22:46:07.134Z,10.63
2022-10-13T22:48:40.548Z,12.00
2022-10-13T22:51:09.801Z,13.27
2022-10-13T22:53:38.094Z,16.20
2022-10-13T22:56:07.387Z,14.90
2022-10-13T22:58:35.581Z,12.23
2022-10-13T23:01:07.325Z,12.03
2022-10-13T23:03:36.717Z,12.27
2022-10-13T23:06:05.636Z,12.80
2022-10-13T23:08:34.285Z,14.23
2022-10-13T23:11:02.198Z,18.73
2022-10-13T23:13:30.087Z,15.17
2022-10-13T23:16:02.376Z,17.80
2022-10-13T23:18:30.250Z,13.73
2022-10-13T23:20:59.622Z,15.77
2022-10-13T23:23:27.499Z,11.07
2022-10-13T23:25:55.351Z,12.40
2022-10-13T23:28:23.276Z,18.23
2022-10-13T23:30:51.314Z,13.23
2022-10-13T23:33:19.153Z,17.20
2022-10-13T23:35:54.893Z,13.10
2022-10-13T23:38:24.925Z,16.20
2022-10-13T23:40:53.159Z,13.00
2022-10-13T23:43:21.482Z,17.20
2022-10-13T23:45:49.371Z,16.23
2022-10-13T23:48:17.245Z,13.93
2022-10-13T23:50:45.122Z,13.97
2022-10-13T23:53:12.992Z,11.23
2022-10-13T23:55:42.356Z,10.03
2022-10-13T23:58:10.356Z,12.57
